Wentworth, New Hampshire
Current Conditions -  °F | °C
As of 1:35 AM on Thursday 23 Oct 2014 (Local Time) from K1P1 Reporting Station
Light Rain Light Rain  
Wind Chill: 11°   Ceiling: 2900
Heat Index: 11°   Visibility: 10mi
Dew Point:   Wind: 3mph
Humidity: 87%   Direction: 60°ENE
Pressure: 29.93"   Gusts: NA
Location:  43.87°N, 71.91°W
Report Text: K1P1 230535Z AUTO 06003KT 10SM -RA OVC029 11/09 A2993 RMK AO2 LTG DSNT SE AND S T01110090
Loading
Personal Weather Stations






























Interactive Weather Map
Tropical Storm Tracking
New forecast layout! Learn more

10-Day Weather Forecast

Advertisements
Track Severe Weather on mobile